sensor_id;sensor_type;location;lat;lon;timestamp;temperature;humidity
26707;DHT22;14319;49.422;10.934;2023-01-30T00:01:31;-1.50;79.10
26707;DHT22;14319;49.422;10.934;2023-01-30T00:03:32;-1.60;79.60
26707;DHT22;14319;49.422;10.934;2023-01-30T00:05:33;-1.60;79.70
26707;DHT22;14319;49.422;10.934;2023-01-30T00:07:34;-1.60;79.50
26707;DHT22;14319;49.422;10.934;2023-01-30T00:09:34;-1.60;79.70
26707;DHT22;14319;49.422;10.934;2023-01-30T00:11:35;-1.50;79.90
26707;DHT22;14319;49.422;10.934;2023-01-30T00:13:35;-1.50;80.00
26707;DHT22;14319;49.422;10.934;2023-01-30T00:15:36;-1.40;79.70
26707;DHT22;14319;49.422;10.934;2023-01-30T00:17:37;-1.50;80.10
26707;DHT22;14319;49.422;10.934;2023-01-30T00:19:37;-1.50;80.10
26707;DHT22;14319;49.422;10.934;2023-01-30T00:21:38;-1.50;79.70
26707;DHT22;14319;49.422;10.934;2023-01-30T00:23:38;-1.50;78.70
26707;DHT22;14319;49.422;10.934;2023-01-30T00:25:39;-1.50;79.40
26707;DHT22;14319;49.422;10.934;2023-01-30T00:27:40;-1.50;80.00
26707;DHT22;14319;49.422;10.934;2023-01-30T00:29:40;-1.50;79.70
26707;DHT22;14319;49.422;10.934;2023-01-30T00:31:41;-1.50;79.90
26707;DHT22;14319;49.422;10.934;2023-01-30T00:33:41;-1.50;80.10
26707;DHT22;14319;49.422;10.934;2023-01-30T00:35:45;-1.50;80.40
26707;DHT22;14319;49.422;10.934;2023-01-30T00:37:46;-1.50;80.00
26707;DHT22;14319;49.422;10.934;2023-01-30T00:39:48;-1.90;78.80
26707;DHT22;14319;49.422;10.934;2023-01-30T00:41:49;-2.00;78.80
26707;DHT22;14319;49.422;10.934;2023-01-30T00:44:08;-2.00;79.10
26707;DHT22;14319;49.422;10.934;2023-01-30T00:46:30;-2.30;80.00
26707;DHT22;14319;49.422;10.934;2023-01-30T00:48:50;-2.20;80.60
26707;DHT22;14319;49.422;10.934;2023-01-30T00:50:50;-2.30;80.50
26707;DHT22;14319;49.422;10.934;2023-01-30T00:52:51;-2.20;81.30
26707;DHT22;14319;49.422;10.934;2023-01-30T00:54:51;-2.00;81.10
26707;DHT22;14319;49.422;10.934;2023-01-30T00:56:52;-2.00;81.20
26707;DHT22;14319;49.422;10.934;2023-01-30T00:58:52;-1.90;81.60
26707;DHT22;14319;49.422;10.934;2023-01-30T01:00:53;-1.80;81.70
26707;DHT22;14319;49.422;10.934;2023-01-30T01:02:54;-1.70;81.60
26707;DHT22;14319;49.422;10.934;2023-01-30T01:04:55;-1.60;81.60
26707;DHT22;14319;49.422;10.934;2023-01-30T01:06:55;-1.60;81.40
26707;DHT22;14319;49.422;10.934;2023-01-30T01:08:56;-1.50;81.40
26707;DHT22;14319;49.422;10.934;2023-01-30T01:10:57;-1.40;81.20
26707;DHT22;14319;49.422;10.934;2023-01-30T01:12:58;-1.30;81.10
26707;DHT22;14319;49.422;10.934;2023-01-30T01:14:59;-1.20;80.90
26707;DHT22;14319;49.422;10.934;2023-01-30T01:16:59;-1.10;80.80
26707;DHT22;14319;49.422;10.934;2023-01-30T01:19:00;-1.10;80.80
26707;DHT22;14319;49.422;10.934;2023-01-30T01:21:01;-1.00;80.40
26707;DHT22;14319;49.422;10.934;2023-01-30T01:23:01;-1.00;80.70
26707;DHT22;14319;49.422;10.934;2023-01-30T01:25:02;-1.00;80.70
26707;DHT22;14319;49.422;10.934;2023-01-30T01:27:03;-0.90;80.60
26707;DHT22;14319;49.422;10.934;2023-01-30T01:29:03;-0.90;80.60
26707;DHT22;14319;49.422;10.934;2023-01-30T01:31:08;-0.80;80.60
26707;DHT22;14319;49.422;10.934;2023-01-30T01:33:08;-0.80;80.50
26707;DHT22;14319;49.422;10.934;2023-01-30T01:35:09;-0.80;80.40
26707;DHT22;14319;49.422;10.934;2023-01-30T01:37:10;-0.80;80.10
26707;DHT22;14319;49.422;10.934;2023-01-30T01:39:11;-0.70;80.00
26707;DHT22;14319;49.422;10.934;2023-01-30T01:41:11;-0.70;80.80
26707;DHT22;14319;49.422;10.934;2023-01-30T01:43:16;-0.60;79.90
26707;DHT22;14319;49.422;10.934;2023-01-30T01:45:20;-0.50;79.50
26707;DHT22;14319;49.422;10.934;2023-01-30T01:47:21;-0.50;79.30
26707;DHT22;14319;49.422;10.934;2023-01-30T01:49:24;-0.40;78.80
26707;DHT22;14319;49.422;10.934;2023-01-30T01:51:28;-0.30;78.80
26707;DHT22;14319;49.422;10.934;2023-01-30T01:53:33;-0.30;78.80
26707;DHT22;14319;49.422;10.934;2023-01-30T01:55:35;-0.20;77.90
26707;DHT22;14319;49.422;10.934;2023-01-30T01:57:37;-0.20;77.80
26707;DHT22;14319;49.422;10.934;2023-01-30T01:59:42;-0.20;78.10
26707;DHT22;14319;49.422;10.934;2023-01-30T02:01:44;-0.20;78.00
26707;DHT22;14319;49.422;10.934;2023-01-30T02:03:46;-0.20;78.30
26707;DHT22;14319;49.422;10.934;2023-01-30T02:05:50;-0.20;78.20
26707;DHT22;14319;49.422;10.934;2023-01-30T02:09:52;-0.20;78.20
26707;DHT22;14319;49.422;10.934;2023-01-30T02:11:55;-0.20;78.40
26707;DHT22;14319;49.422;10.934;2023-01-30T02:13:57;-0.20;78.20
26707;DHT22;14319;49.422;10.934;2023-01-30T02:15:59;-0.20;78.20
26707;DHT22;14319;49.422;10.934;2023-01-30T02:18:00;-0.10;78.10
26707;DHT22;14319;49.422;10.934;2023-01-30T02:26:44;-0.10;78.00
26707;DHT22;14319;49.422;10.934;2023-01-30T02:28:50;0.00;77.80
26707;DHT22;14319;49.422;10.934;2023-01-30T02:33:19;0.00;77.30
26707;DHT22;14319;49.422;10.934;2023-01-30T02:35:25;0.10;77.10
26707;DHT22;14319;49.422;10.934;2023-01-30T02:44:16;0.20;76.30
26707;DHT22;14319;49.422;10.934;2023-01-30T02:46:24;0.10;76.70
26707;DHT22;14319;49.422;10.934;2023-01-30T02:48:27;0.20;77.00
26707;DHT22;14319;49.422;10.934;2023-01-30T02:50:39;0.20;77.10
26707;DHT22;14319;49.422;10.934;2023-01-30T02:52:41;0.30;77.30
26707;DHT22;14319;49.422;10.934;2023-01-30T02:54:42;0.30;77.00
26707;DHT22;14319;49.422;10.934;2023-01-30T02:56:55;0.30;77.00
26707;DHT22;14319;49.422;10.934;2023-01-30T02:58:58;0.30;77.10
26707;DHT22;14319;49.422;10.934;2023-01-30T03:01:18;0.30;77.30
26707;DHT22;14319;49.422;10.934;2023-01-30T03:07:26;0.40;77.50
26707;DHT22;14319;49.422;10.934;2023-01-30T03:09:39;0.40;77.40
26707;DHT22;14319;49.422;10.934;2023-01-30T03:11:46;0.50;77.50
26707;DHT22;14319;49.422;10.934;2023-01-30T03:14:07;0.50;77.00
26707;DHT22;14319;49.422;10.934;2023-01-30T03:18:30;0.40;77.60
26707;DHT22;14319;49.422;10.934;2023-01-30T03:20:35;0.40;77.00
26707;DHT22;14319;49.422;10.934;2023-01-30T03:22:35;0.30;77.30
26707;DHT22;14319;49.422;10.934;2023-01-30T03:24:36;0.10;77.50
26707;DHT22;14319;49.422;10.934;2023-01-30T03:26:42;0.10;77.80
26707;DHT22;14319;49.422;10.934;2023-01-30T03:28:44;0.00;77.90
26707;DHT22;14319;49.422;10.934;2023-01-30T03:30:45;0.10;78.20
26707;DHT22;14319;49.422;10.934;2023-01-30T03:32:47;0.10;78.00
26707;DHT22;14319;49.422;10.934;2023-01-30T03:34:48;0.20;77.70
26707;DHT22;14319;49.422;10.934;2023-01-30T03:36:49;0.00;77.90
26707;DHT22;14319;49.422;10.934;2023-01-30T03:38:50;0.20;78.00
26707;DHT22;14319;49.422;10.934;2023-01-30T03:40:51;0.10;78.20
26707;DHT22;14319;49.422;10.934;2023-01-30T03:42:51;0.20;78.30
26707;DHT22;14319;49.422;10.934;2023-01-30T03:44:52;0.10;78.30
26707;DHT22;14319;49.422;10.934;2023-01-30T03:46:52;0.10;78.50
26707;DHT22;14319;49.422;10.934;2023-01-30T03:48:53;0.10;78.70
26707;DHT22;14319;49.422;10.934;2023-01-30T03:50:55;0.10;78.40
26707;DHT22;14319;49.422;10.934;2023-01-30T03:52:55;0.10;78.30
26707;DHT22;14319;49.422;10.934;2023-01-30T03:54:56;0.20;78.50
26707;DHT22;14319;49.422;10.934;2023-01-30T03:56:57;0.30;78.10
26707;DHT22;14319;49.422;10.934;2023-01-30T03:58:58;0.50;78.00
26707;DHT22;14319;49.422;10.934;2023-01-30T04:01:07;0.30;77.50
26707;DHT22;14319;49.422;10.934;2023-01-30T04:03:07;0.30;77.40
26707;DHT22;14319;49.422;10.934;2023-01-30T04:05:08;0.30;77.70
26707;DHT22;14319;49.422;10.934;2023-01-30T04:07:10;0.30;77.90
26707;DHT22;14319;49.422;10.934;2023-01-30T04:09:11;0.30;78.00
26707;DHT22;14319;49.422;10.934;2023-01-30T04:11:19;0.30;78.00
26707;DHT22;14319;49.422;10.934;2023-01-30T04:13:20;0.40;78.00
26707;DHT22;14319;49.422;10.934;2023-01-30T04:15:20;0.30;77.90
26707;DHT22;14319;49.422;10.934;2023-01-30T04:17:47;0.30;78.10
26707;DHT22;14319;49.422;10.934;2023-01-30T04:20:07;0.40;78.00
26707;DHT22;14319;49.422;10.934;2023-01-30T04:22:09;0.50;77.60
26707;DHT22;14319;49.422;10.934;2023-01-30T04:24:10;0.60;77.80
26707;DHT22;14319;49.422;10.934;2023-01-30T04:26:11;0.50;77.50
26707;DHT22;14319;49.422;10.934;2023-01-30T04:28:14;0.50;77.60
26707;DHT22;14319;49.422;10.934;2023-01-30T04:30:14;0.50;77.60
26707;DHT22;14319;49.422;10.934;2023-01-30T04:32:16;0.50;77.80
26707;DHT22;14319;49.422;10.934;2023-01-30T04:34:16;0.60;77.10
26707;DHT22;14319;49.422;10.934;2023-01-30T04:36:17;0.60;77.00
26707;DHT22;14319;49.422;10.934;2023-01-30T04:38:19;0.50;77.60
26707;DHT22;14319;49.422;10.934;2023-01-30T04:40:20;0.60;77.40
26707;DHT22;14319;49.422;10.934;2023-01-30T04:42:21;0.60;77.50
26707;DHT22;14319;49.422;10.934;2023-01-30T04:44:41;0.50;77.70
26707;DHT22;14319;49.422;10.934;2023-01-30T04:46:50;0.50;78.00
26707;DHT22;14319;49.422;10.934;2023-01-30T04:48:50;0.60;78.00
26707;DHT22;14319;49.422;10.934;2023-01-30T04:50:51;0.60;78.10
26707;DHT22;14319;49.422;10.934;2023-01-30T04:52:52;0.50;78.50
26707;DHT22;14319;49.422;10.934;2023-01-30T04:54:53;0.50;78.80
26707;DHT22;14319;49.422;10.934;2023-01-30T04:56:54;0.60;79.00
26707;DHT22;14319;49.422;10.934;2023-01-30T04:58:54;0.60;79.50
26707;DHT22;14319;49.422;10.934;2023-01-30T05:01:10;0.60;79.30
26707;DHT22;14319;49.422;10.934;2023-01-30T05:03:11;0.60;79.50
26707;DHT22;14319;49.422;10.934;2023-01-30T05:05:12;0.60;79.70
26707;DHT22;14319;49.422;10.934;2023-01-30T05:07:12;0.60;80.30
26707;DHT22;14319;49.422;10.934;2023-01-30T05:09:13;0.60;81.70
26707;DHT22;14319;49.422;10.934;2023-01-30T05:11:13;0.60;82.20
26707;DHT22;14319;49.422;10.934;2023-01-30T05:13:14;0.50;82.90
26707;DHT22;14319;49.422;10.934;2023-01-30T05:15:14;0.50;83.70
26707;DHT22;14319;49.422;10.934;2023-01-30T05:17:15;0.50;83.80
26707;DHT22;14319;49.422;10.934;2023-01-30T05:19:15;0.60;83.80
26707;DHT22;14319;49.422;10.934;2023-01-30T05:21:25;0.50;84.10
26707;DHT22;14319;49.422;10.934;2023-01-30T05:23:27;0.40;84.10
26707;DHT22;14319;49.422;10.934;2023-01-30T05:25:27;0.50;84.20
26707;DHT22;14319;49.422;10.934;2023-01-30T05:27:28;0.50;83.80
26707;DHT22;14319;49.422;10.934;2023-01-30T05:29:28;0.60;84.30
26707;DHT22;14319;49.422;10.934;2023-01-30T05:31:29;0.50;83.90
26707;DHT22;14319;49.422;10.934;2023-01-30T05:33:29;0.60;84.20
26707;DHT22;14319;49.422;10.934;2023-01-30T05:35:30;0.50;83.80
26707;DHT22;14319;49.422;10.934;2023-01-30T05:37:30;0.50;84.10
26707;DHT22;14319;49.422;10.934;2023-01-30T05:39:31;0.40;84.70
26707;DHT22;14319;49.422;10.934;2023-01-30T05:41:31;0.40;84.80
26707;DHT22;14319;49.422;10.934;2023-01-30T05:43:32;0.40;85.60
26707;DHT22;14319;49.422;10.934;2023-01-30T05:45:33;0.40;85.10
26707;DHT22;14319;49.422;10.934;2023-01-30T05:47:34;0.30;86.00
26707;DHT22;14319;49.422;10.934;2023-01-30T05:49:34;0.20;86.80
26707;DHT22;14319;49.422;10.934;2023-01-30T05:51:35;0.20;86.60
26707;DHT22;14319;49.422;10.934;2023-01-30T05:53:35;0.10;86.90
26707;DHT22;14319;49.422;10.934;2023-01-30T05:55:36;0.10;87.60
26707;DHT22;14319;49.422;10.934;2023-01-30T05:57:36;0.10;86.80
26707;DHT22;14319;49.422;10.934;2023-01-30T05:59:37;0.10;86.40
26707;DHT22;14319;49.422;10.934;2023-01-30T06:01:37;0.10;86.50
26707;DHT22;14319;49.422;10.934;2023-01-30T06:03:38;0.10;86.00
26707;DHT22;14319;49.422;10.934;2023-01-30T06:05:38;0.00;86.30
26707;DHT22;14319;49.422;10.934;2023-01-30T06:07:39;0.10;87.00
26707;DHT22;14319;49.422;10.934;2023-01-30T06:09:39;0.20;86.80
26707;DHT22;14319;49.422;10.934;2023-01-30T06:11:40;0.10;86.70
26707;DHT22;14319;49.422;10.934;2023-01-30T06:13:41;0.20;86.80
26707;DHT22;14319;49.422;10.934;2023-01-30T06:15:41;0.40;85.80
26707;DHT22;14319;49.422;10.934;2023-01-30T06:17:42;0.30;85.20
26707;DHT22;14319;49.422;10.934;2023-01-30T06:19:43;0.20;85.10
26707;DHT22;14319;49.422;10.934;2023-01-30T06:21:43;0.20;84.70
26707;DHT22;14319;49.422;10.934;2023-01-30T06:23:44;0.20;85.10
26707;DHT22;14319;49.422;10.934;2023-01-30T06:25:46;0.20;84.40
26707;DHT22;14319;49.422;10.934;2023-01-30T06:27:46;0.20;84.90
26707;DHT22;14319;49.422;10.934;2023-01-30T06:29:47;0.30;84.20
26707;DHT22;14319;49.422;10.934;2023-01-30T06:31:47;0.40;84.30
26707;DHT22;14319;49.422;10.934;2023-01-30T06:33:48;0.50;83.50
26707;DHT22;14319;49.422;10.934;2023-01-30T06:35:49;0.40;83.20
26707;DHT22;14319;49.422;10.934;2023-01-30T06:37:49;0.40;83.70
26707;DHT22;14319;49.422;10.934;2023-01-30T06:39:50;0.40;83.90
26707;DHT22;14319;49.422;10.934;2023-01-30T06:41:50;0.40;83.40
26707;DHT22;14319;49.422;10.934;2023-01-30T06:43:51;0.40;83.10
26707;DHT22;14319;49.422;10.934;2023-01-30T06:45:51;0.40;83.10
26707;DHT22;14319;49.422;10.934;2023-01-30T06:47:52;0.40;82.90
26707;DHT22;14319;49.422;10.934;2023-01-30T06:49:53;0.40;82.60
26707;DHT22;14319;49.422;10.934;2023-01-30T06:51:54;0.40;82.90
26707;DHT22;14319;49.422;10.934;2023-01-30T06:53:54;0.50;82.80
26707;DHT22;14319;49.422;10.934;2023-01-30T06:55:55;0.60;81.90
26707;DHT22;14319;49.422;10.934;2023-01-30T06:58:03;0.60;81.80
26707;DHT22;14319;49.422;10.934;2023-01-30T07:00:04;0.60;81.70
26707;DHT22;14319;49.422;10.934;2023-01-30T07:02:05;0.50;82.00
26707;DHT22;14319;49.422;10.934;2023-01-30T07:04:06;0.50;82.30
26707;DHT22;14319;49.422;10.934;2023-01-30T07:06:06;0.50;82.90
26707;DHT22;14319;49.422;10.934;2023-01-30T07:08:07;0.50;82.20
26707;DHT22;14319;49.422;10.934;2023-01-30T07:10:11;0.50;81.90
26707;DHT22;14319;49.422;10.934;2023-01-30T07:12:12;0.50;81.80
26707;DHT22;14319;49.422;10.934;2023-01-30T07:14:12;0.50;81.90
26707;DHT22;14319;49.422;10.934;2023-01-30T07:16:13;0.50;81.50
26707;DHT22;14319;49.422;10.934;2023-01-30T07:18:13;0.50;81.40
26707;DHT22;14319;49.422;10.934;2023-01-30T07:20:14;0.50;81.40
26707;DHT22;14319;49.422;10.934;2023-01-30T07:22:14;0.50;81.60
26707;DHT22;14319;49.422;10.934;2023-01-30T07:24:15;0.50;81.30
26707;DHT22;14319;49.422;10.934;2023-01-30T07:26:15;0.50;81.60
26707;DHT22;14319;49.422;10.934;2023-01-30T07:28:16;0.50;81.60
26707;DHT22;14319;49.422;10.934;2023-01-30T07:30:16;0.60;81.50
26707;DHT22;14319;49.422;10.934;2023-01-30T07:32:18;0.70;81.00
26707;DHT22;14319;49.422;10.934;2023-01-30T07:34:19;0.70;81.10
26707;DHT22;14319;49.422;10.934;2023-01-30T07:36:19;0.70;81.10
26707;DHT22;14319;49.422;10.934;2023-01-30T07:38:20;0.70;80.90
26707;DHT22;14319;49.422;10.934;2023-01-30T07:40:21;0.70;80.90
26707;DHT22;14319;49.422;10.934;2023-01-30T07:42:21;0.70;80.90
26707;DHT22;14319;49.422;10.934;2023-01-30T07:44:22;0.80;80.70
26707;DHT22;14319;49.422;10.934;2023-01-30T07:46:22;0.70;80.80
26707;DHT22;14319;49.422;10.934;2023-01-30T07:48:23;0.80;80.60
26707;DHT22;14319;49.422;10.934;2023-01-30T07:50:23;0.80;80.50
26707;DHT22;14319;49.422;10.934;2023-01-30T07:52:23;0.80;80.60
26707;DHT22;14319;49.422;10.934;2023-01-30T07:54:24;0.90;80.40
26707;DHT22;14319;49.422;10.934;2023-01-30T07:56:26;1.00;80.10
26707;DHT22;14319;49.422;10.934;2023-01-30T07:58:26;1.00;80.40
26707;DHT22;14319;49.422;10.934;2023-01-30T08:00:27;0.90;80.30
26707;DHT22;14319;49.422;10.934;2023-01-30T08:02:28;1.00;80.40
26707;DHT22;14319;49.422;10.934;2023-01-30T08:04:28;1.00;80.40
26707;DHT22;14319;49.422;10.934;2023-01-30T08:06:29;1.00;80.30
26707;DHT22;14319;49.422;10.934;2023-01-30T08:08:30;1.00;80.40
26707;DHT22;14319;49.422;10.934;2023-01-30T08:10:30;1.10;80.20
26707;DHT22;14319;49.422;10.934;2023-01-30T08:12:30;1.10;80.40
26707;DHT22;14319;49.422;10.934;2023-01-30T08:14:31;1.10;79.80
26707;DHT22;14319;49.422;10.934;2023-01-30T08:16:32;1.10;79.90
26707;DHT22;14319;49.422;10.934;2023-01-30T08:18:33;1.30;79.50
26707;DHT22;14319;49.422;10.934;2023-01-30T08:20:34;1.20;79.70
26707;DHT22;14319;49.422;10.934;2023-01-30T08:22:35;1.20;79.50
26707;DHT22;14319;49.422;10.934;2023-01-30T08:24:35;1.10;80.00
26707;DHT22;14319;49.422;10.934;2023-01-30T08:26:36;1.20;79.70
26707;DHT22;14319;49.422;10.934;2023-01-30T08:28:36;1.20;79.70
26707;DHT22;14319;49.422;10.934;2023-01-30T08:30:37;1.30;79.30
26707;DHT22;14319;49.422;10.934;2023-01-30T08:32:37;1.40;79.00
26707;DHT22;14319;49.422;10.934;2023-01-30T08:34:38;1.40;78.90
26707;DHT22;14319;49.422;10.934;2023-01-30T08:36:38;1.30;78.80
26707;DHT22;14319;49.422;10.934;2023-01-30T08:38:39;1.30;79.20
26707;DHT22;14319;49.422;10.934;2023-01-30T08:40:39;1.30;79.00
26707;DHT22;14319;49.422;10.934;2023-01-30T08:42:42;1.30;79.00
26707;DHT22;14319;49.422;10.934;2023-01-30T08:44:43;1.20;79.20
26707;DHT22;14319;49.422;10.934;2023-01-30T08:46:43;1.20;79.40
26707;DHT22;14319;49.422;10.934;2023-01-30T08:48:44;1.30;79.50
26707;DHT22;14319;49.422;10.934;2023-01-30T08:50:45;1.30;80.00
26707;DHT22;14319;49.422;10.934;2023-01-30T08:52:46;1.20;80.20
26707;DHT22;14319;49.422;10.934;2023-01-30T08:54:46;1.20;80.40
26707;DHT22;14319;49.422;10.934;2023-01-30T08:56:47;1.30;81.10
26707;DHT22;14319;49.422;10.934;2023-01-30T08:58:47;1.30;82.00
26707;DHT22;14319;49.422;10.934;2023-01-30T09:00:48;1.30;83.60
26707;DHT22;14319;49.422;10.934;2023-01-30T09:02:51;1.30;84.00
26707;DHT22;14319;49.422;10.934;2023-01-30T09:04:52;1.20;84.80
26707;DHT22;14319;49.422;10.934;2023-01-30T09:06:53;1.20;86.30
26707;DHT22;14319;49.422;10.934;2023-01-30T09:08:54;1.10;86.10
26707;DHT22;14319;49.422;10.934;2023-01-30T09:10:57;1.10;86.70
26707;DHT22;14319;49.422;10.934;2023-01-30T09:12:58;1.00;86.80
26707;DHT22;14319;49.422;10.934;2023-01-30T09:14:59;1.10;87.50
26707;DHT22;14319;49.422;10.934;2023-01-30T09:16:59;1.10;87.50
26707;DHT22;14319;49.422;10.934;2023-01-30T09:19:00;1.00;88.00
26707;DHT22;14319;49.422;10.934;2023-01-30T09:21:03;1.00;88.40
26707;DHT22;14319;49.422;10.934;2023-01-30T09:23:04;1.00;88.50
26707;DHT22;14319;49.422;10.934;2023-01-30T09:25:05;0.90;88.40
26707;DHT22;14319;49.422;10.934;2023-01-30T09:27:05;0.90;88.30
26707;DHT22;14319;49.422;10.934;2023-01-30T09:29:06;0.90;89.10
26707;DHT22;14319;49.422;10.934;2023-01-30T09:31:06;0.90;89.00
26707;DHT22;14319;49.422;10.934;2023-01-30T09:33:07;0.90;90.00
26707;DHT22;14319;49.422;10.934;2023-01-30T09:35:07;0.90;88.70
26707;DHT22;14319;49.422;10.934;2023-01-30T09:37:08;1.10;89.60
26707;DHT22;14319;49.422;10.934;2023-01-30T09:39:08;1.00;88.80
26707;DHT22;14319;49.422;10.934;2023-01-30T09:41:17;1.10;88.70
26707;DHT22;14319;49.422;10.934;2023-01-30T09:43:25;1.20;88.00
26707;DHT22;14319;49.422;10.934;2023-01-30T09:49:44;1.10;88.10
26707;DHT22;14319;49.422;10.934;2023-01-30T09:51:54;1.10;88.00
26707;DHT22;14319;49.422;10.934;2023-01-30T09:56:04;1.20;87.30
26707;DHT22;14319;49.422;10.934;2023-01-30T09:58:05;1.20;87.50
26707;DHT22;14319;49.422;10.934;2023-01-30T10:00:16;1.20;87.40
26707;DHT22;14319;49.422;10.934;2023-01-30T10:02:52;1.30;86.80
26707;DHT22;14319;49.422;10.934;2023-01-30T10:04:45;1.20;87.00
26707;DHT22;14319;49.422;10.934;2023-01-30T10:06:50;1.20;86.60
26707;DHT22;14319;49.422;10.934;2023-01-30T10:08:58;1.40;86.30
26707;DHT22;14319;49.422;10.934;2023-01-30T10:15:27;1.50;85.10
26707;DHT22;14319;49.422;10.934;2023-01-30T10:17:37;1.40;85.80
26707;DHT22;14319;49.422;10.934;2023-01-30T10:21:51;1.50;85.40
26707;DHT22;14319;49.422;10.934;2023-01-30T10:26:26;1.60;85.40
26707;DHT22;14319;49.422;10.934;2023-01-30T10:28:28;1.70;85.20
26707;DHT22;14319;49.422;10.934;2023-01-30T10:30:30;1.70;84.70
26707;DHT22;14319;49.422;10.934;2023-01-30T10:32:32;1.60;85.20
26707;DHT22;14319;49.422;10.934;2023-01-30T10:34:35;1.60;84.60
26707;DHT22;14319;49.422;10.934;2023-01-30T10:38:53;1.70;84.80
26707;DHT22;14319;49.422;10.934;2023-01-30T10:40:57;1.80;84.70
26707;DHT22;14319;49.422;10.934;2023-01-30T10:45:20;1.70;84.50
26707;DHT22;14319;49.422;10.934;2023-01-30T10:49:34;2.00;84.20
26707;DHT22;14319;49.422;10.934;2023-01-30T10:51:39;2.10;83.70
26707;DHT22;14319;49.422;10.934;2023-01-30T10:53:55;2.10;83.20
26707;DHT22;14319;49.422;10.934;2023-01-30T10:56:05;2.20;83.20
26707;DHT22;14319;49.422;10.934;2023-01-30T10:58:30;2.30;83.30
26707;DHT22;14319;49.422;10.934;2023-01-30T11:00:35;2.30;82.90
26707;DHT22;14319;49.422;10.934;2023-01-30T11:02:51;2.30;82.40
26707;DHT22;14319;49.422;10.934;2023-01-30T11:04:56;2.30;82.90
26707;DHT22;14319;49.422;10.934;2023-01-30T11:06:58;2.20;82.70
26707;DHT22;14319;49.422;10.934;2023-01-30T11:08:59;2.20;83.20
26707;DHT22;14319;49.422;10.934;2023-01-30T11:11:19;2.20;83.50
26707;DHT22;14319;49.422;10.934;2023-01-30T11:13:21;2.20;83.40
26707;DHT22;14319;49.422;10.934;2023-01-30T11:15:40;2.30;83.30
26707;DHT22;14319;49.422;10.934;2023-01-30T11:17:41;2.20;83.10
26707;DHT22;14319;49.422;10.934;2023-01-30T11:19:42;2.30;83.40
26707;DHT22;14319;49.422;10.934;2023-01-30T11:21:46;2.30;83.30
26707;DHT22;14319;49.422;10.934;2023-01-30T11:23:48;2.30;83.40
26707;DHT22;14319;49.422;10.934;2023-01-30T11:25:51;2.40;83.80
26707;DHT22;14319;49.422;10.934;2023-01-30T11:28:00;2.40;83.10
26707;DHT22;14319;49.422;10.934;2023-01-30T11:30:02;2.30;83.20
26707;DHT22;14319;49.422;10.934;2023-01-30T11:32:04;2.30;83.00
26707;DHT22;14319;49.422;10.934;2023-01-30T11:34:16;2.30;83.30
26707;DHT22;14319;49.422;10.934;2023-01-30T11:36:27;2.30;83.30
26707;DHT22;14319;49.422;10.934;2023-01-30T11:38:32;2.30;83.60
26707;DHT22;14319;49.422;10.934;2023-01-30T11:40:33;2.30;84.00
26707;DHT22;14319;49.422;10.934;2023-01-30T11:42:36;2.40;84.10
26707;DHT22;14319;49.422;10.934;2023-01-30T11:44:42;2.40;83.60
26707;DHT22;14319;49.422;10.934;2023-01-30T11:46:43;2.50;83.50
26707;DHT22;14319;49.422;10.934;2023-01-30T11:48:52;2.50;83.00
26707;DHT22;14319;49.422;10.934;2023-01-30T11:50:54;2.60;83.00
26707;DHT22;14319;49.422;10.934;2023-01-30T11:52:59;2.50;82.80
26707;DHT22;14319;49.422;10.934;2023-01-30T11:55:06;2.50;82.40
26707;DHT22;14319;49.422;10.934;2023-01-30T11:57:12;2.50;83.30
26707;DHT22;14319;49.422;10.934;2023-01-30T11:59:30;2.50;83.20
26707;DHT22;14319;49.422;10.934;2023-01-30T12:01:32;2.40;83.00
26707;DHT22;14319;49.422;10.934;2023-01-30T12:03:34;2.50;82.90
26707;DHT22;14319;49.422;10.934;2023-01-30T12:05:37;2.40;82.70
26707;DHT22;14319;49.422;10.934;2023-01-30T12:07:41;2.50;83.70
26707;DHT22;14319;49.422;10.934;2023-01-30T12:09:43;2.50;82.80
26707;DHT22;14319;49.422;10.934;2023-01-30T12:11:44;2.50;82.70
26707;DHT22;14319;49.422;10.934;2023-01-30T12:13:44;2.50;82.80
26707;DHT22;14319;49.422;10.934;2023-01-30T12:15:45;2.60;82.40
26707;DHT22;14319;49.422;10.934;2023-01-30T12:20:11;2.60;82.90
26707;DHT22;14319;49.422;10.934;2023-01-30T12:26:27;2.70;83.20
26707;DHT22;14319;49.422;10.934;2023-01-30T12:28:31;2.70;83.40
26707;DHT22;14319;49.422;10.934;2023-01-30T12:30:35;2.80;83.30
26707;DHT22;14319;49.422;10.934;2023-01-30T12:32:37;2.80;82.50
26707;DHT22;14319;49.422;10.934;2023-01-30T12:34:38;2.70;82.00
26707;DHT22;14319;49.422;10.934;2023-01-30T12:36:44;2.80;82.50
26707;DHT22;14319;49.422;10.934;2023-01-30T12:38:51;2.80;82.30
26707;DHT22;14319;49.422;10.934;2023-01-30T12:41:04;2.80;82.10
26707;DHT22;14319;49.422;10.934;2023-01-30T12:43:24;2.90;82.00
26707;DHT22;14319;49.422;10.934;2023-01-30T12:45:33;2.90;81.40
26707;DHT22;14319;49.422;10.934;2023-01-30T12:48:20;2.80;82.00
26707;DHT22;14319;49.422;10.934;2023-01-30T12:58:35;2.80;82.60
26707;DHT22;14319;49.422;10.934;2023-01-30T13:07:07;3.10;82.20
26707;DHT22;14319;49.422;10.934;2023-01-30T13:09:32;3.10;81.20
26707;DHT22;14319;49.422;10.934;2023-01-30T13:13:47;3.40;80.90
26707;DHT22;14319;49.422;10.934;2023-01-30T13:15:55;3.50;81.20
26707;DHT22;14319;49.422;10.934;2023-01-30T13:24:36;3.40;81.20
26707;DHT22;14319;49.422;10.934;2023-01-30T13:26:40;3.50;80.60
26707;DHT22;14319;49.422;10.934;2023-01-30T13:28:48;3.70;80.80
26707;DHT22;14319;49.422;10.934;2023-01-30T13:30:49;3.80;79.70
26707;DHT22;14319;49.422;10.934;2023-01-30T13:32:52;3.60;79.70
26707;DHT22;14319;49.422;10.934;2023-01-30T13:34:55;3.60;80.00
26707;DHT22;14319;49.422;10.934;2023-01-30T13:39:04;3.40;81.30
26707;DHT22;14319;49.422;10.934;2023-01-30T13:41:08;3.30;80.60
26707;DHT22;14319;49.422;10.934;2023-01-30T13:43:25;3.40;81.00
26707;DHT22;14319;49.422;10.934;2023-01-30T13:45:28;3.40;80.40
26707;DHT22;14319;49.422;10.934;2023-01-30T13:51:46;3.40;80.70
26707;DHT22;14319;49.422;10.934;2023-01-30T13:53:53;3.30;80.70
26707;DHT22;14319;49.422;10.934;2023-01-30T13:55:59;3.30;80.60
26707;DHT22;14319;49.422;10.934;2023-01-30T13:58:04;3.50;80.70
26707;DHT22;14319;49.422;10.934;2023-01-30T14:02:19;3.60;80.00
26707;DHT22;14319;49.422;10.934;2023-01-30T14:06:31;3.50;80.00
26707;DHT22;14319;49.422;10.934;2023-01-30T14:08:45;3.40;80.10
26707;DHT22;14319;49.422;10.934;2023-01-30T14:10:49;3.40;80.10
26707;DHT22;14319;49.422;10.934;2023-01-30T14:12:53;3.30;80.60
26707;DHT22;14319;49.422;10.934;2023-01-30T14:17:07;3.30;80.70
26707;DHT22;14319;49.422;10.934;2023-01-30T14:19:29;3.30;81.20
26707;DHT22;14319;49.422;10.934;2023-01-30T14:21:31;3.20;81.00
26707;DHT22;14319;49.422;10.934;2023-01-30T14:23:32;3.20;80.90
26707;DHT22;14319;49.422;10.934;2023-01-30T14:25:34;3.20;81.10